createdAt,value
2023-04-19T00:01:50.868Z,6.50
2023-04-19T00:04:19.276Z,6.40
2023-04-19T00:06:47.493Z,9.80
2023-04-19T00:09:15.476Z,9.03
2023-04-19T00:11:44.822Z,6.97
2023-04-19T00:14:13.011Z,10.23
2023-04-19T00:16:42.046Z,7.07
2023-04-19T00:19:10.589Z,7.13
2023-04-19T00:21:38.557Z,7.93
2023-04-19T00:24:07.389Z,5.90
2023-04-19T00:26:35.373Z,7.00
2023-04-19T00:29:05.004Z,8.67
2023-04-19T00:31:33.158Z,6.13
2023-04-19T00:34:01.191Z,6.83
2023-04-19T00:36:30.862Z,7.07
2023-04-19T00:38:59.060Z,4.37
2023-04-19T00:41:27.169Z,8.47
2023-04-19T00:43:55.318Z,7.73
2023-04-19T00:46:25.195Z,7.03
2023-04-19T00:48:53.212Z,6.80
2023-04-19T00:51:21.521Z,5.80
2023-04-19T00:53:49.972Z,8.67
2023-04-19T00:56:18.877Z,8.07
2023-04-19T00:58:47.836Z,5.90
2023-04-19T01:01:16.026Z,7.10
2023-04-19T01:03:45.879Z,7.83
2023-04-19T01:06:14.496Z,8.13
2023-04-19T01:08:42.549Z,5.53
2023-04-19T01:11:10.761Z,5.67
2023-04-19T01:13:38.978Z,7.40
2023-04-19T01:16:08.403Z,5.90
2023-04-19T01:18:37.814Z,5.47
2023-04-19T01:21:08.780Z,5.10
2023-04-19T01:23:39.251Z,6.30
2023-04-19T01:26:07.623Z,8.33
2023-04-19T01:28:35.891Z,7.80
2023-04-19T01:31:04.047Z,8.03
2023-04-19T01:33:32.043Z,10.07
2023-04-19T01:35:59.990Z,6.77
2023-04-19T01:38:28.072Z,5.77
2023-04-19T01:40:57.378Z,7.77
2023-04-19T01:43:25.708Z,6.87
2023-04-19T01:45:53.764Z,8.33
2023-04-19T01:48:21.755Z,5.73
2023-04-19T01:50:49.730Z,4.33
2023-04-19T01:53:18.150Z,4.90
2023-04-19T01:55:46.360Z,6.30
2023-04-19T01:58:15.949Z,5.07
2023-04-19T02:00:43.984Z,12.40
2023-04-19T02:03:12.360Z,5.70
2023-04-19T02:05:40.925Z,5.80
2023-04-19T02:08:08.980Z,5.30
2023-04-19T02:10:36.993Z,8.73
2023-04-19T02:13:05.080Z,7.03
2023-04-19T02:15:34.445Z,6.93
2023-04-19T02:18:02.547Z,6.07
2023-04-19T02:20:31.282Z,5.07
2023-04-19T02:22:59.406Z,3.93
2023-04-19T02:25:27.651Z,5.80
2023-04-19T02:27:55.624Z,5.80
2023-04-19T02:30:23.997Z,5.33
2023-04-19T02:32:55.004Z,6.57
2023-04-19T02:35:23.200Z,5.27
2023-04-19T02:37:51.444Z,5.63
2023-04-19T02:40:19.819Z,6.50
2023-04-19T02:42:47.780Z,5.23
2023-04-19T02:45:15.983Z,4.80
2023-04-19T02:47:43.999Z,6.83
2023-04-19T02:50:13.993Z,6.50
2023-04-19T02:52:42.095Z,4.97
2023-04-19T02:55:10.973Z,6.13
2023-04-19T02:57:38.926Z,6.33
2023-04-19T03:00:10.302Z,4.70
2023-04-19T03:02:39.697Z,4.07
2023-04-19T03:05:08.904Z,6.10
2023-04-19T03:07:38.285Z,7.60
2023-04-19T03:10:07.692Z,9.03
2023-04-19T03:12:35.871Z,6.37
2023-04-19T03:15:04.095Z,9.73
2023-04-19T03:17:32.364Z,8.37
2023-04-19T03:20:00.500Z,4.57
2023-04-19T03:22:28.660Z,8.67
2023-04-19T03:24:58.205Z,3.50
2023-04-19T03:27:26.300Z,10.03
2023-04-19T03:29:54.316Z,6.07
2023-04-19T03:32:22.363Z,7.97
2023-04-19T03:34:50.569Z,6.80
2023-04-19T03:37:18.566Z,8.97
2023-04-19T03:39:46.563Z,7.13
2023-04-19T03:42:16.048Z,7.37
2023-04-19T03:44:44.123Z,8.80
2023-04-19T03:47:12.220Z,4.40
2023-04-19T03:49:40.199Z,6.80
2023-04-19T03:52:08.247Z,9.03
2023-04-19T03:54:36.309Z,8.57
2023-04-19T03:57:04.501Z,9.93
2023-04-19T03:59:33.956Z,5.77
2023-04-19T04:02:02.363Z,7.60
2023-04-19T04:04:30.706Z,5.40
2023-04-19T04:06:59.036Z,5.20
2023-04-19T04:09:27.083Z,6.73
2023-04-19T04:11:55.201Z,7.47
2023-04-19T04:14:23.183Z,6.27
2023-04-19T04:16:52.722Z,7.20
2023-04-19T04:19:22.058Z,10.73
2023-04-19T04:21:50.433Z,8.87
2023-04-19T04:24:20.383Z,8.27
2023-04-19T04:26:49.881Z,8.53
2023-04-19T04:29:18.165Z,7.60
2023-04-19T04:31:46.427Z,8.60
2023-04-19T04:34:16.481Z,9.07
2023-04-19T04:36:44.582Z,7.17
2023-04-19T04:39:13.155Z,7.93
2023-04-19T04:41:42.445Z,7.03
2023-04-19T04:44:23.426Z,5.83
2023-04-19T04:46:51.652Z,8.23
2023-04-19T04:49:21.144Z,9.70
2023-04-19T04:51:49.167Z,7.83
2023-04-19T04:54:17.409Z,7.03
2023-04-19T04:56:45.864Z,7.50
2023-04-19T04:59:13.914Z,7.40
2023-04-19T05:01:42.273Z,8.90
2023-04-19T05:04:10.431Z,7.53
2023-04-19T05:06:40.938Z,6.93
2023-04-19T05:09:09.171Z,5.97
2023-04-19T05:11:37.282Z,10.20
2023-04-19T05:14:05.659Z,5.43
2023-04-19T05:16:34.479Z,8.03
2023-04-19T05:19:02.468Z,5.40
2023-04-19T05:21:30.899Z,5.27
2023-04-19T05:24:00.371Z,5.23
2023-04-19T05:26:28.486Z,5.00
2023-04-19T05:28:56.858Z,7.07
2023-04-19T05:31:25.153Z,8.63
2023-04-19T05:33:53.230Z,7.03
2023-04-19T05:36:21.500Z,6.03
2023-04-19T05:38:49.663Z,6.97
2023-04-19T05:41:18.998Z,6.00
2023-04-19T05:43:46.971Z,4.87
2023-04-19T05:46:15.111Z,8.57
2023-04-19T05:48:43.136Z,5.43
2023-04-19T05:51:11.349Z,6.70
2023-04-19T05:53:39.367Z,9.83
2023-04-19T05:56:08.045Z,6.37
2023-04-19T05:58:37.689Z,6.03
2023-04-19T06:01:06.163Z,6.30
2023-04-19T06:03:34.591Z,6.00
2023-04-19T06:06:02.975Z,5.33
2023-04-19T06:08:31.847Z,7.13
2023-04-19T06:11:05.196Z,6.80
2023-04-19T06:13:45.117Z,7.00
2023-04-19T06:16:13.380Z,6.77
2023-04-19T06:18:43.293Z,6.80
2023-04-19T06:21:11.439Z,11.63
2023-04-19T06:23:39.517Z,7.53
2023-04-19T06:26:07.495Z,7.50
2023-04-19T06:28:35.460Z,7.40
2023-04-19T06:31:06.581Z,6.13
2023-04-19T06:33:34.563Z,6.97
2023-04-19T06:36:02.539Z,8.00
2023-04-19T06:38:31.234Z,9.30
2023-04-19T06:40:59.217Z,6.63
2023-04-19T06:43:27.234Z,5.17
2023-04-19T06:45:59.684Z,7.60
2023-04-19T06:48:29.265Z,5.70
2023-04-19T06:50:57.535Z,6.80
2023-04-19T06:53:26.805Z,6.77
2023-04-19T06:56:01.043Z,10.67
2023-04-19T06:58:29.447Z,7.93
2023-04-19T07:00:57.516Z,10.07
2023-04-19T07:03:25.998Z,9.50
2023-04-19T07:05:56.565Z,9.67
2023-04-19T07:08:27.868Z,5.90
2023-04-19T07:11:00.325Z,7.27
2023-04-19T07:13:28.360Z,7.07
2023-04-19T07:15:56.555Z,8.27
2023-04-19T07:18:24.708Z,8.83
2023-04-19T07:20:55.018Z,8.03
2023-04-19T07:23:22.985Z,6.13
2023-04-19T07:25:50.937Z,7.20
2023-04-19T07:28:18.979Z,5.77
2023-04-19T07:30:46.929Z,10.77
2023-04-19T07:33:14.966Z,9.00
2023-04-19T07:35:42.982Z,7.10
2023-04-19T07:38:12.641Z,6.77
2023-04-19T07:40:40.718Z,10.27
2023-04-19T07:43:08.746Z,9.10
2023-04-19T07:45:36.900Z,8.47
2023-04-19T07:48:05.207Z,11.97
2023-04-19T07:50:33.261Z,25.00
2023-04-19T07:53:01.270Z,25.77
2023-04-19T07:55:30.861Z,21.27
2023-04-19T07:57:58.869Z,13.53
2023-04-19T08:00:26.987Z,16.27
2023-04-19T08:02:55.395Z,20.10
2023-04-19T08:05:24.092Z,32.13
2023-04-19T08:07:53.479Z,19.03
2023-04-19T08:10:22.499Z,9.43
2023-04-19T08:13:05.014Z,11.17
2023-04-19T08:18:05.981Z,7.87
2023-04-19T08:20:34.164Z,12.97
2023-04-19T08:23:07.585Z,8.70
2023-04-19T08:25:42.637Z,8.43
2023-04-19T08:28:12.585Z,11.40
2023-04-19T08:30:41.608Z,11.00
2023-04-19T08:33:09.656Z,15.23
2023-04-19T08:35:40.994Z,14.27
2023-04-19T08:38:09.040Z,17.17
2023-04-19T08:40:39.276Z,16.63
2023-04-19T08:43:07.942Z,12.70
2023-04-19T08:45:38.275Z,11.33
2023-04-19T08:48:07.060Z,13.93
2023-04-19T08:50:45.631Z,19.93
2023-04-19T08:53:25.351Z,19.97
2023-04-19T08:56:12.962Z,16.63
2023-04-19T09:03:59.485Z,13.00
2023-04-19T09:06:37.481Z,10.37
2023-04-19T09:11:53.385Z,10.93
2023-04-19T09:14:23.091Z,7.53
2023-04-19T09:16:53.096Z,9.13
2023-04-19T09:19:25.166Z,11.43
2023-04-19T09:21:54.901Z,9.83
2023-04-19T09:25:14.561Z,17.10
2023-04-19T09:27:29.019Z,17.00
2023-04-19T09:29:57.705Z,14.97
2023-04-19T09:32:27.667Z,15.17
2023-04-19T09:34:57.216Z,9.80
2023-04-19T09:37:39.129Z,11.60
2023-04-19T09:40:28.111Z,12.93
2023-04-19T09:45:30.589Z,10.60
2023-04-19T09:48:04.881Z,10.47
2023-04-19T09:50:34.051Z,6.37
2023-04-19T09:53:12.000Z,6.60
2023-04-19T09:55:52.556Z,9.00
2023-04-19T09:58:34.462Z,9.50
2023-04-19T10:01:15.132Z,8.00
2023-04-19T10:03:48.080Z,7.70
2023-04-19T10:06:37.326Z,7.13
2023-04-19T10:09:06.776Z,9.67
2023-04-19T10:11:40.103Z,6.80
2023-04-19T10:14:19.475Z,10.70
2023-04-19T10:16:48.013Z,6.10
2023-04-19T10:19:20.101Z,6.97
2023-04-19T10:21:49.648Z,6.43
2023-04-19T10:24:18.516Z,7.70
2023-04-19T10:27:12.386Z,8.23
2023-04-19T10:29:56.976Z,6.70
2023-04-19T10:32:26.276Z,8.50
2023-04-19T10:34:55.764Z,7.57
2023-04-19T10:37:26.201Z,7.30
2023-04-19T10:39:54.268Z,8.97
2023-04-19T10:42:22.405Z,4.87
2023-04-19T10:45:27.346Z,6.00
2023-04-19T10:47:55.466Z,6.33
2023-04-19T10:50:25.238Z,6.33
2023-04-19T10:52:53.236Z,10.33
2023-04-19T10:55:21.438Z,6.90
2023-04-19T10:58:06.682Z,7.87
2023-04-19T11:00:36.235Z,6.30
2023-04-19T11:03:50.283Z,6.83
2023-04-19T11:06:23.005Z,5.10
2023-04-19T11:08:51.057Z,7.90
2023-04-19T11:11:19.554Z,6.20
2023-04-19T11:13:49.187Z,7.07
2023-04-19T11:16:19.415Z,5.23
2023-04-19T11:18:47.752Z,6.37
2023-04-19T11:21:16.396Z,7.83
2023-04-19T11:23:47.875Z,8.43
2023-04-19T11:26:15.968Z,6.63
2023-04-19T11:28:46.134Z,5.63
2023-04-19T11:31:14.335Z,6.80
2023-04-19T11:33:45.015Z,4.93
2023-04-19T11:36:14.180Z,6.00
2023-04-19T11:38:42.165Z,5.30
2023-04-19T11:41:11.686Z,5.93
2023-04-19T11:43:40.598Z,5.30
2023-04-19T11:46:11.265Z,6.30
2023-04-19T11:48:39.673Z,6.73
2023-04-19T11:51:07.933Z,6.63
2023-04-19T11:53:36.140Z,5.70
2023-04-19T11:56:07.300Z,6.87
2023-04-19T11:58:40.213Z,5.67
2023-04-19T12:01:10.750Z,5.60
2023-04-19T12:03:43.154Z,6.37
2023-04-19T12:06:16.459Z,4.83
2023-04-19T12:08:47.406Z,6.17
2023-04-19T12:11:16.558Z,6.50
2023-04-19T12:13:46.392Z,6.10
2023-04-19T12:16:14.763Z,5.93
2023-04-19T12:18:48.673Z,6.40
2023-04-19T12:21:31.717Z,5.27
2023-04-19T12:24:01.304Z,5.53
2023-04-19T12:26:31.039Z,6.23
2023-04-19T12:29:02.600Z,4.33
2023-04-19T12:31:33.839Z,6.03
2023-04-19T12:34:01.885Z,5.13
2023-04-19T12:36:30.553Z,7.50
2023-04-19T12:38:58.932Z,5.67
2023-04-19T12:41:27.036Z,6.37
2023-04-19T12:43:55.040Z,6.13
2023-04-19T12:46:24.413Z,7.20
2023-04-19T12:48:52.424Z,7.60
2023-04-19T12:51:20.462Z,6.83
2023-04-19T12:53:50.103Z,7.37
2023-04-19T12:56:18.626Z,7.93
2023-04-19T12:58:46.620Z,6.23
2023-04-19T13:01:14.857Z,9.10
2023-04-19T13:03:44.569Z,9.30
2023-04-19T13:06:14.827Z,6.60
2023-04-19T13:08:46.573Z,9.60
2023-04-19T13:11:17.662Z,7.80
2023-04-19T13:13:45.844Z,6.60
2023-04-19T13:16:13.849Z,8.73
2023-04-19T13:18:41.907Z,8.77
2023-04-19T13:21:11.580Z,10.57
2023-04-19T13:23:39.733Z,8.50
2023-04-19T13:26:08.138Z,8.67
2023-04-19T13:28:36.814Z,8.03
2023-04-19T13:31:05.859Z,8.77
2023-04-19T13:33:34.156Z,8.23
2023-04-19T13:36:02.345Z,10.77
2023-04-19T13:38:31.867Z,10.93
2023-04-19T13:41:00.777Z,8.73
2023-04-19T13:43:28.775Z,10.73
2023-04-19T13:45:56.853Z,10.73
2023-04-19T13:48:27.445Z,10.33
2023-04-19T13:50:56.045Z,13.63
2023-04-19T13:53:25.169Z,11.13
2023-04-19T13:55:56.927Z,8.93
2023-04-19T13:58:25.927Z,9.87
2023-04-19T14:00:54.778Z,9.07
2023-04-19T14:03:24.068Z,11.10
2023-04-19T14:05:52.202Z,10.20
2023-04-19T14:08:20.983Z,10.50
2023-04-19T14:10:50.049Z,9.70
2023-04-19T14:13:19.444Z,11.47
2023-04-19T14:15:47.479Z,10.67
2023-04-19T14:18:15.527Z,10.00
2023-04-19T14:20:43.589Z,12.53
2023-04-19T14:23:11.968Z,10.47
2023-04-19T14:25:40.156Z,9.77
2023-04-19T14:28:08.369Z,8.37
2023-04-19T14:30:37.822Z,10.90
2023-04-19T14:33:05.960Z,11.47
2023-04-19T14:35:33.955Z,9.07
2023-04-19T14:38:02.045Z,8.70
2023-04-19T14:40:30.036Z,10.57
2023-04-19T14:42:58.023Z,10.93
2023-04-19T14:45:26.036Z,13.87
2023-04-19T14:47:55.407Z,9.73
2023-04-19T14:50:23.443Z,9.43
2023-04-19T14:52:51.466Z,10.67
2023-04-19T14:55:19.726Z,10.30
2023-04-19T14:57:47.686Z,11.00
2023-04-19T15:00:16.625Z,8.73
2023-04-19T15:02:44.848Z,9.07
2023-04-19T15:05:14.572Z,9.10
2023-04-19T15:07:42.813Z,8.70
2023-04-19T15:10:11.512Z,8.47
2023-04-19T15:12:39.645Z,10.17
2023-04-19T15:15:08.959Z,7.83
2023-04-19T15:17:37.353Z,8.60
2023-04-19T15:20:06.091Z,8.77
2023-04-19T15:22:35.641Z,8.10
2023-04-19T15:25:03.895Z,8.50
2023-04-19T15:27:31.973Z,8.33
2023-04-19T15:30:00.385Z,7.30
2023-04-19T15:32:31.103Z,7.60
2023-04-19T15:34:59.135Z,8.03
2023-04-19T15:37:27.631Z,6.77
2023-04-19T15:39:57.052Z,8.67
2023-04-19T15:42:25.187Z,9.73
2023-04-19T15:44:53.265Z,8.20
2023-04-19T15:47:21.252Z,11.43
2023-04-19T15:49:49.543Z,9.07
2023-04-19T15:52:19.040Z,8.50
2023-04-19T15:54:47.100Z,8.60
2023-04-19T15:57:16.676Z,10.40
2023-04-19T15:59:44.845Z,9.57
2023-04-19T16:02:13.071Z,9.40
2023-04-19T16:04:41.283Z,9.60
2023-04-19T16:07:09.359Z,10.53
2023-04-19T16:09:37.329Z,11.60
2023-04-19T16:12:05.711Z,11.23
2023-04-19T16:14:35.017Z,11.77
2023-04-19T16:17:03.021Z,12.73
2023-04-19T16:19:31.056Z,12.10
2023-04-19T16:22:02.040Z,10.20
2023-04-19T16:24:29.984Z,11.07
2023-04-19T16:26:58.882Z,10.30
2023-04-19T16:29:27.000Z,9.87
2023-04-19T16:31:56.399Z,11.30
2023-04-19T16:34:25.622Z,11.93
2023-04-19T16:36:54.261Z,10.90
2023-04-19T16:39:22.236Z,14.40
2023-04-19T16:41:50.557Z,8.23
2023-04-19T16:44:18.556Z,10.37
2023-04-19T16:46:46.557Z,9.23
2023-04-19T16:49:16.389Z,11.53
2023-04-19T16:51:44.447Z,12.07
2023-04-19T16:54:12.411Z,10.27
2023-04-19T16:56:40.479Z,10.50
2023-04-19T16:59:08.479Z,10.57
2023-04-19T17:01:36.779Z,12.17
2023-04-19T17:04:04.986Z,11.60
2023-04-19T17:06:34.719Z,9.53
2023-04-19T17:09:05.108Z,9.83
2023-04-19T17:11:33.319Z,10.00
2023-04-19T17:14:01.638Z,10.70
2023-04-19T17:16:29.636Z,11.30
2023-04-19T17:18:57.959Z,11.57
2023-04-19T17:21:26.047Z,8.60
2023-04-19T17:23:55.465Z,11.30
2023-04-19T17:26:23.891Z,11.77
2023-04-19T17:28:51.904Z,11.47
2023-04-19T17:31:19.944Z,10.73
2023-04-19T17:33:48.055Z,14.30
2023-04-19T17:36:16.019Z,12.43
2023-04-19T17:38:44.237Z,11.70
2023-04-19T17:41:16.542Z,11.80
2023-04-19T17:43:44.756Z,10.47
2023-04-19T17:46:13.852Z,13.13
2023-04-19T17:48:42.195Z,8.90
2023-04-19T17:51:10.291Z,12.03
2023-04-19T17:53:38.361Z,11.90
2023-04-19T17:56:06.595Z,10.53
2023-04-19T17:58:36.510Z,11.30
2023-04-19T18:01:06.884Z,11.20
2023-04-19T18:03:35.055Z,15.27
2023-04-19T18:06:03.253Z,12.57
2023-04-19T18:08:31.277Z,11.60
2023-04-19T18:10:59.271Z,11.23
2023-04-19T18:13:27.626Z,11.03
2023-04-19T18:15:57.161Z,14.53
2023-04-19T18:18:25.237Z,13.20
2023-04-19T18:20:53.256Z,14.20
2023-04-19T18:23:21.419Z,11.67
2023-04-19T18:25:55.003Z,14.73
2023-04-19T18:28:23.284Z,14.27
2023-04-19T18:30:51.541Z,14.50
2023-04-19T18:33:21.194Z,15.77
2023-04-19T18:35:49.362Z,13.83
2023-04-19T18:38:17.378Z,18.23
2023-04-19T18:40:45.371Z,16.40
2023-04-19T18:43:13.454Z,18.50
2023-04-19T18:45:41.564Z,15.65
2023-04-19T18:48:09.853Z,19.17
2023-04-19T18:50:39.623Z,18.17
2023-04-19T18:53:07.577Z,18.30
2023-04-19T18:55:35.776Z,17.07
2023-04-19T18:58:03.991Z,18.33
2023-04-19T19:00:32.162Z,17.93
2023-04-19T19:03:01.999Z,21.17
2023-04-19T19:05:31.479Z,20.50
2023-04-19T19:08:01.419Z,18.27
2023-04-19T19:13:00.621Z,18.20
2023-04-19T19:15:29.033Z,17.30
2023-04-19T19:17:57.352Z,15.90
2023-04-19T19:20:26.252Z,16.87
2023-04-19T19:22:54.690Z,18.80
2023-04-19T19:25:24.419Z,15.27
2023-04-19T19:30:29.486Z,14.97
2023-04-19T19:32:57.799Z,15.43
2023-04-19T19:35:25.926Z,16.87
2023-04-19T19:37:54.068Z,14.50
2023-04-19T19:40:23.591Z,18.77
2023-04-19T19:42:51.583Z,16.50
2023-04-19T19:45:19.824Z,17.10
2023-04-19T19:47:49.571Z,16.60
2023-04-19T19:52:51.492Z,20.03
2023-04-19T19:55:19.491Z,15.57
2023-04-19T19:58:25.767Z,18.50
2023-04-19T20:00:46.322Z,17.37
2023-04-19T20:03:28.330Z,23.57
2023-04-19T20:06:05.490Z,22.50
2023-04-19T20:08:47.503Z,19.90
2023-04-19T20:11:15.653Z,20.87
2023-04-19T20:13:45.917Z,16.87
2023-04-19T20:16:14.734Z,17.53
2023-04-19T20:18:44.059Z,18.30
2023-04-19T20:21:12.085Z,18.63
2023-04-19T20:23:40.749Z,19.40
2023-04-19T20:26:08.915Z,22.43
2023-04-19T20:28:36.920Z,19.33
2023-04-19T20:31:06.337Z,20.20
2023-04-19T20:33:34.480Z,19.07
2023-04-19T20:36:03.738Z,17.13
2023-04-19T20:38:34.559Z,16.80
2023-04-19T20:41:03.116Z,16.47
2023-04-19T20:43:31.915Z,17.77
2023-04-19T20:45:59.991Z,21.37
2023-04-19T20:48:29.429Z,19.40
2023-04-19T20:50:57.435Z,19.30
2023-04-19T20:53:25.528Z,16.83
2023-04-19T20:55:53.633Z,15.57
2023-04-19T20:58:21.798Z,20.93
2023-04-19T21:00:50.813Z,16.43
2023-04-19T21:03:19.098Z,19.43
2023-04-19T21:05:48.539Z,16.40
2023-04-19T21:08:18.363Z,16.37
2023-04-19T21:10:46.374Z,17.43
2023-04-19T21:13:14.331Z,16.93
2023-04-19T21:15:42.559Z,15.80
2023-04-19T21:18:10.958Z,18.57
2023-04-19T21:20:39.617Z,17.40
2023-04-19T21:23:08.944Z,33.87
2023-04-19T21:25:37.198Z,38.43
2023-04-19T21:28:05.205Z,36.30
2023-04-19T21:30:33.537Z,35.47
2023-04-19T21:33:01.800Z,40.53
2023-04-19T21:35:30.293Z,31.47
2023-04-19T21:37:58.229Z,32.73
2023-04-19T21:40:27.899Z,39.30
2023-04-19T21:42:55.951Z,34.53
2023-04-19T21:45:24.163Z,20.57
2023-04-19T21:47:52.344Z,33.77
2023-04-19T21:50:20.707Z,36.97
2023-04-19T21:52:48.729Z,35.90
2023-04-19T21:55:16.844Z,35.27
2023-04-19T21:57:46.172Z,38.07
2023-04-19T22:00:16.102Z,31.43
2023-04-19T22:02:44.492Z,25.83
2023-04-19T22:05:13.632Z,33.57
2023-04-19T22:07:42.181Z,24.80
2023-04-19T22:10:11.986Z,21.97
2023-04-19T22:12:51.292Z,23.13
2023-04-19T22:15:27.963Z,25.83
2023-04-19T22:17:57.479Z,19.87
2023-04-19T22:20:26.859Z,19.73
2023-04-19T22:22:55.136Z,17.57
2023-04-19T22:25:23.256Z,21.70
2023-04-19T22:27:51.509Z,18.07
2023-04-19T22:30:19.585Z,18.23
2023-04-19T22:32:49.259Z,17.70
2023-04-19T22:35:17.529Z,17.80
2023-04-19T22:37:45.598Z,19.97
2023-04-19T22:40:14.282Z,19.53
2023-04-19T22:42:42.402Z,20.83
2023-04-19T22:45:11.360Z,16.83
2023-04-19T22:47:39.508Z,18.13
2023-04-19T22:50:10.237Z,17.17
2023-04-19T22:52:38.673Z,15.83
2023-04-19T22:55:07.476Z,16.77
2023-04-19T22:57:35.575Z,16.53
2023-04-19T23:00:05.357Z,15.27
2023-04-19T23:02:33.487Z,18.60
2023-04-19T23:05:02.252Z,20.03
2023-04-19T23:07:32.513Z,20.27
2023-04-19T23:10:01.296Z,20.90
2023-04-19T23:12:31.010Z,17.77
2023-04-19T23:14:59.459Z,16.17
2023-04-19T23:17:27.682Z,18.70
2023-04-19T23:19:55.885Z,15.60
2023-04-19T23:22:23.930Z,17.40
2023-04-19T23:24:53.297Z,15.87
2023-04-19T23:27:21.649Z,16.63
2023-04-19T23:29:49.832Z,15.20
2023-04-19T23:32:18.172Z,14.97
2023-04-19T23:34:46.243Z,18.37
2023-04-19T23:37:14.782Z,17.07
2023-04-19T23:39:42.773Z,14.37
2023-04-19T23:42:12.335Z,17.13
2023-04-19T23:44:42.202Z,15.07
2023-04-19T23:47:11.436Z,17.27
2023-04-19T23:49:39.455Z,14.67
2023-04-19T23:52:07.570Z,14.20
2023-04-19T23:54:35.737Z,13.93
2023-04-19T23:57:03.817Z,14.30
2023-04-19T23:59:33.944Z,14.80
